Nan, Thailand
Current Conditions -  °F | °C
As of 9:00 PM on Thursday 29 Jan 2015 (Local Time) from VTCN Reporting Station
Clear Clear  
Wind Chill: 63°   Ceiling: Unl
Heat Index: 63°   Visibility: 6mi
Dew Point: 61°   Wind: 3mph
Humidity: 94%   Direction: 360°N
Pressure: 29.91"   Gusts: NA
Location:  18.78°N, 100.77°E
Report Text: VTCN 291400Z 36003KT CAVOK 17/16 Q1013 A2994RWY/02 INFO/M
Loading
Personal Weather Stations






























Interactive Weather Map New forecast layout! Learn more

10-Day Weather Forecast

Advertisements
Track Severe Weather on mobile